sensor_id;sensor_type;location;lat;lon;timestamp;P1;durP1;ratioP1;P2;durP2;ratioP2
8536;SDS011;4306;50.210;10.628;2022-08-01T00:01:15;4.95;;;3.05;;
8536;SDS011;4306;50.210;10.628;2022-08-01T00:03:42;5.03;;;3.08;;
8536;SDS011;4306;50.210;10.628;2022-08-01T00:06:09;4.55;;;3.00;;
8536;SDS011;4306;50.210;10.628;2022-08-01T00:08:37;3.92;;;3.33;;
8536;SDS011;4306;50.210;10.628;2022-08-01T00:11:04;3.50;;;2.88;;
8536;SDS011;4306;50.210;10.628;2022-08-01T00:13:31;7.05;;;3.30;;
8536;SDS011;4306;50.210;10.628;2022-08-01T00:15:58;5.13;;;3.25;;
8536;SDS011;4306;50.210;10.628;2022-08-01T00:18:25;4.18;;;3.20;;
8536;SDS011;4306;50.210;10.628;2022-08-01T00:20:52;4.10;;;3.05;;
8536;SDS011;4306;50.210;10.628;2022-08-01T00:23:19;5.15;;;3.38;;
8536;SDS011;4306;50.210;10.628;2022-08-01T00:25:47;3.13;;;2.67;;
8536;SDS011;4306;50.210;10.628;2022-08-01T00:28:14;4.07;;;2.97;;
8536;SDS011;4306;50.210;10.628;2022-08-01T00:30:41;4.90;;;3.00;;
8536;SDS011;4306;50.210;10.628;2022-08-01T00:33:08;5.13;;;3.33;;
8536;SDS011;4306;50.210;10.628;2022-08-01T00:35:35;4.53;;;3.22;;
8536;SDS011;4306;50.210;10.628;2022-08-01T00:38:02;3.65;;;3.22;;
8536;SDS011;4306;50.210;10.628;2022-08-01T00:40:29;4.18;;;3.20;;
8536;SDS011;4306;50.210;10.628;2022-08-01T00:42:57;7.05;;;2.67;;
8536;SDS011;4306;50.210;10.628;2022-08-01T00:45:24;4.03;;;2.90;;
8536;SDS011;4306;50.210;10.628;2022-08-01T00:47:51;3.65;;;2.67;;
8536;SDS011;4306;50.210;10.628;2022-08-01T00:50:18;3.85;;;2.95;;
8536;SDS011;4306;50.210;10.628;2022-08-01T00:52:45;3.78;;;2.90;;
8536;SDS011;4306;50.210;10.628;2022-08-01T00:55:12;3.80;;;3.05;;
8536;SDS011;4306;50.210;10.628;2022-08-01T00:57:40;4.50;;;3.20;;
8536;SDS011;4306;50.210;10.628;2022-08-01T01:00:09;4.97;;;2.88;;
8536;SDS011;4306;50.210;10.628;2022-08-01T01:02:37;3.50;;;2.85;;
8536;SDS011;4306;50.210;10.628;2022-08-01T01:05:04;3.55;;;2.80;;
8536;SDS011;4306;50.210;10.628;2022-08-01T01:07:32;4.70;;;2.90;;
8536;SDS011;4306;50.210;10.628;2022-08-01T01:10:06;6.07;;;3.28;;
8536;SDS011;4306;50.210;10.628;2022-08-01T01:12:41;5.47;;;3.10;;
8536;SDS011;4306;50.210;10.628;2022-08-01T01:15:14;6.50;;;3.13;;
8536;SDS011;4306;50.210;10.628;2022-08-01T01:17:45;4.45;;;3.00;;
8536;SDS011;4306;50.210;10.628;2022-08-01T01:20:18;5.20;;;3.20;;
8536;SDS011;4306;50.210;10.628;2022-08-01T01:22:53;3.78;;;3.00;;
8536;SDS011;4306;50.210;10.628;2022-08-01T01:25:39;5.75;;;3.38;;
8536;SDS011;4306;50.210;10.628;2022-08-01T01:28:20;5.38;;;3.00;;
8536;SDS011;4306;50.210;10.628;2022-08-01T01:30:57;3.67;;;2.85;;
8536;SDS011;4306;50.210;10.628;2022-08-01T01:33:26;4.35;;;3.00;;
8536;SDS011;4306;50.210;10.628;2022-08-01T01:35:57;4.45;;;3.10;;
8536;SDS011;4306;50.210;10.628;2022-08-01T01:38:28;3.70;;;2.85;;
8536;SDS011;4306;50.210;10.628;2022-08-01T01:40:58;3.97;;;3.00;;
8536;SDS011;4306;50.210;10.628;2022-08-01T01:43:27;4.72;;;3.15;;
8536;SDS011;4306;50.210;10.628;2022-08-01T01:45:58;4.10;;;2.92;;
8536;SDS011;4306;50.210;10.628;2022-08-01T01:48:26;4.55;;;3.30;;
8536;SDS011;4306;50.210;10.628;2022-08-01T01:50:54;3.42;;;2.78;;
8536;SDS011;4306;50.210;10.628;2022-08-01T01:53:22;3.88;;;3.10;;
8536;SDS011;4306;50.210;10.628;2022-08-01T01:55:52;9.88;;;3.22;;
8536;SDS011;4306;50.210;10.628;2022-08-01T01:58:20;3.40;;;2.85;;
8536;SDS011;4306;50.210;10.628;2022-08-01T02:00:50;4.47;;;3.28;;
8536;SDS011;4306;50.210;10.628;2022-08-01T02:03:20;3.53;;;2.70;;
8536;SDS011;4306;50.210;10.628;2022-08-01T02:05:49;3.88;;;2.88;;
8536;SDS011;4306;50.210;10.628;2022-08-01T02:08:17;3.45;;;2.75;;
8536;SDS011;4306;50.210;10.628;2022-08-01T02:10:44;5.22;;;2.88;;
8536;SDS011;4306;50.210;10.628;2022-08-01T02:13:33;3.55;;;2.83;;
8536;SDS011;4306;50.210;10.628;2022-08-01T02:16:02;3.83;;;2.78;;
8536;SDS011;4306;50.210;10.628;2022-08-01T02:18:31;5.65;;;3.00;;
8536;SDS011;4306;50.210;10.628;2022-08-01T02:20:58;4.20;;;3.17;;
8536;SDS011;4306;50.210;10.628;2022-08-01T02:23:31;4.95;;;3.05;;
8536;SDS011;4306;50.210;10.628;2022-08-01T02:26:00;3.53;;;2.72;;
8536;SDS011;4306;50.210;10.628;2022-08-01T02:28:35;4.57;;;2.85;;
8536;SDS011;4306;50.210;10.628;2022-08-01T02:31:06;7.60;;;3.60;;
8536;SDS011;4306;50.210;10.628;2022-08-01T02:33:39;4.10;;;2.95;;
8536;SDS011;4306;50.210;10.628;2022-08-01T02:36:08;3.13;;;2.70;;
8536;SDS011;4306;50.210;10.628;2022-08-01T02:38:39;5.07;;;3.15;;
8536;SDS011;4306;50.210;10.628;2022-08-01T02:41:09;3.80;;;2.90;;
8536;SDS011;4306;50.210;10.628;2022-08-01T02:43:40;4.57;;;2.80;;
8536;SDS011;4306;50.210;10.628;2022-08-01T02:46:12;3.83;;;2.85;;
8536;SDS011;4306;50.210;10.628;2022-08-01T02:48:45;5.38;;;2.70;;
8536;SDS011;4306;50.210;10.628;2022-08-01T02:51:13;4.55;;;2.88;;
8536;SDS011;4306;50.210;10.628;2022-08-01T02:53:42;5.50;;;2.83;;
8536;SDS011;4306;50.210;10.628;2022-08-01T02:56:10;3.95;;;2.97;;
8536;SDS011;4306;50.210;10.628;2022-08-01T02:58:38;3.95;;;3.10;;
8536;SDS011;4306;50.210;10.628;2022-08-01T03:01:06;6.05;;;3.00;;
8536;SDS011;4306;50.210;10.628;2022-08-01T03:03:36;4.75;;;2.90;;
8536;SDS011;4306;50.210;10.628;2022-08-01T03:06:05;5.05;;;2.80;;
8536;SDS011;4306;50.210;10.628;2022-08-01T03:08:34;4.78;;;3.08;;
8536;SDS011;4306;50.210;10.628;2022-08-01T03:11:03;5.05;;;3.05;;
8536;SDS011;4306;50.210;10.628;2022-08-01T03:13:32;4.53;;;3.50;;
8536;SDS011;4306;50.210;10.628;2022-08-01T03:15:59;4.80;;;3.10;;
8536;SDS011;4306;50.210;10.628;2022-08-01T03:18:28;7.03;;;3.10;;
8536;SDS011;4306;50.210;10.628;2022-08-01T03:20:56;3.55;;;3.08;;
8536;SDS011;4306;50.210;10.628;2022-08-01T03:23:27;4.95;;;3.38;;
8536;SDS011;4306;50.210;10.628;2022-08-01T03:25:58;5.82;;;3.40;;
8536;SDS011;4306;50.210;10.628;2022-08-01T03:28:28;6.53;;;3.30;;
8536;SDS011;4306;50.210;10.628;2022-08-01T03:30:57;3.35;;;2.97;;
8536;SDS011;4306;50.210;10.628;2022-08-01T03:33:25;4.10;;;3.20;;
8536;SDS011;4306;50.210;10.628;2022-08-01T03:35:53;4.18;;;3.05;;
8536;SDS011;4306;50.210;10.628;2022-08-01T03:38:23;4.57;;;3.00;;
8536;SDS011;4306;50.210;10.628;2022-08-01T03:40:53;4.75;;;3.55;;
8536;SDS011;4306;50.210;10.628;2022-08-01T03:43:26;4.43;;;3.13;;
8536;SDS011;4306;50.210;10.628;2022-08-01T03:46:01;5.38;;;2.90;;
8536;SDS011;4306;50.210;10.628;2022-08-01T03:48:32;4.47;;;3.47;;
8536;SDS011;4306;50.210;10.628;2022-08-01T03:51:05;3.88;;;3.30;;
8536;SDS011;4306;50.210;10.628;2022-08-01T03:53:32;4.72;;;3.00;;
8536;SDS011;4306;50.210;10.628;2022-08-01T03:56:03;5.43;;;3.53;;
8536;SDS011;4306;50.210;10.628;2022-08-01T03:58:33;4.43;;;2.90;;
8536;SDS011;4306;50.210;10.628;2022-08-01T04:01:02;5.32;;;3.22;;
8536;SDS011;4306;50.210;10.628;2022-08-01T04:03:30;5.10;;;3.00;;
8536;SDS011;4306;50.210;10.628;2022-08-01T04:05:58;4.97;;;2.97;;
8536;SDS011;4306;50.210;10.628;2022-08-01T04:08:33;5.93;;;3.10;;
8536;SDS011;4306;50.210;10.628;2022-08-01T04:11:03;6.32;;;4.00;;
8536;SDS011;4306;50.210;10.628;2022-08-01T04:13:30;6.93;;;5.65;;
8536;SDS011;4306;50.210;10.628;2022-08-01T04:15:58;7.28;;;4.90;;
8536;SDS011;4306;50.210;10.628;2022-08-01T04:18:24;4.93;;;4.00;;
8536;SDS011;4306;50.210;10.628;2022-08-01T04:20:52;5.70;;;4.00;;
8536;SDS011;4306;50.210;10.628;2022-08-01T04:23:19;5.07;;;3.97;;
8536;SDS011;4306;50.210;10.628;2022-08-01T04:25:50;3.90;;;3.30;;
8536;SDS011;4306;50.210;10.628;2022-08-01T04:28:19;3.88;;;3.38;;
8536;SDS011;4306;50.210;10.628;2022-08-01T04:30:48;5.78;;;3.80;;
8536;SDS011;4306;50.210;10.628;2022-08-01T04:33:18;4.03;;;3.35;;
8536;SDS011;4306;50.210;10.628;2022-08-01T04:35:46;5.40;;;3.40;;
8536;SDS011;4306;50.210;10.628;2022-08-01T04:38:15;4.38;;;3.80;;
8536;SDS011;4306;50.210;10.628;2022-08-01T04:40:46;4.97;;;3.63;;
8536;SDS011;4306;50.210;10.628;2022-08-01T04:43:15;4.30;;;3.45;;
8536;SDS011;4306;50.210;10.628;2022-08-01T04:45:45;5.75;;;3.95;;
8536;SDS011;4306;50.210;10.628;2022-08-01T04:48:15;5.97;;;3.88;;
8536;SDS011;4306;50.210;10.628;2022-08-01T04:50:44;5.43;;;3.35;;
8536;SDS011;4306;50.210;10.628;2022-08-01T04:53:14;6.97;;;3.70;;
8536;SDS011;4306;50.210;10.628;2022-08-01T04:55:42;4.07;;;3.30;;
8536;SDS011;4306;50.210;10.628;2022-08-01T04:58:11;5.82;;;3.45;;
8536;SDS011;4306;50.210;10.628;2022-08-01T05:00:38;4.53;;;3.75;;
8536;SDS011;4306;50.210;10.628;2022-08-01T05:03:06;6.10;;;3.35;;
8536;SDS011;4306;50.210;10.628;2022-08-01T05:05:34;4.78;;;3.60;;
8536;SDS011;4306;50.210;10.628;2022-08-01T05:08:01;5.13;;;3.25;;
8536;SDS011;4306;50.210;10.628;2022-08-01T05:10:28;4.80;;;3.50;;
8536;SDS011;4306;50.210;10.628;2022-08-01T05:12:55;4.32;;;2.97;;
8536;SDS011;4306;50.210;10.628;2022-08-01T05:15:22;5.60;;;3.60;;
8536;SDS011;4306;50.210;10.628;2022-08-01T05:17:50;5.85;;;3.22;;
8536;SDS011;4306;50.210;10.628;2022-08-01T05:20:18;5.88;;;3.28;;
8536;SDS011;4306;50.210;10.628;2022-08-01T05:22:45;4.60;;;3.30;;
8536;SDS011;4306;50.210;10.628;2022-08-01T05:25:12;6.05;;;3.42;;
8536;SDS011;4306;50.210;10.628;2022-08-01T05:27:39;5.53;;;3.35;;
8536;SDS011;4306;50.210;10.628;2022-08-01T05:30:07;4.40;;;3.10;;
8536;SDS011;4306;50.210;10.628;2022-08-01T05:32:34;5.40;;;3.08;;
8536;SDS011;4306;50.210;10.628;2022-08-01T05:35:02;5.38;;;2.92;;
8536;SDS011;4306;50.210;10.628;2022-08-01T05:37:31;6.13;;;3.10;;
8536;SDS011;4306;50.210;10.628;2022-08-01T05:39:58;5.63;;;2.95;;
8536;SDS011;4306;50.210;10.628;2022-08-01T05:42:25;4.63;;;2.38;;
8536;SDS011;4306;50.210;10.628;2022-08-01T05:44:52;4.97;;;3.30;;
8536;SDS011;4306;50.210;10.628;2022-08-01T05:47:19;5.47;;;2.90;;
8536;SDS011;4306;50.210;10.628;2022-08-01T05:49:46;4.20;;;3.33;;
8536;SDS011;4306;50.210;10.628;2022-08-01T05:52:13;4.78;;;3.20;;
8536;SDS011;4306;50.210;10.628;2022-08-01T05:54:41;5.90;;;3.20;;
8536;SDS011;4306;50.210;10.628;2022-08-01T05:57:08;2.95;;;2.35;;
8536;SDS011;4306;50.210;10.628;2022-08-01T05:59:35;3.53;;;2.67;;
8536;SDS011;4306;50.210;10.628;2022-08-01T06:02:02;3.97;;;2.58;;
8536;SDS011;4306;50.210;10.628;2022-08-01T06:04:29;3.42;;;2.55;;
8536;SDS011;4306;50.210;10.628;2022-08-01T06:06:56;3.78;;;2.53;;
8536;SDS011;4306;50.210;10.628;2022-08-01T06:09:23;2.88;;;2.28;;
8536;SDS011;4306;50.210;10.628;2022-08-01T06:11:51;3.05;;;2.25;;
8536;SDS011;4306;50.210;10.628;2022-08-01T06:14:18;3.33;;;2.40;;
8536;SDS011;4306;50.210;10.628;2022-08-01T06:16:45;3.65;;;2.10;;
8536;SDS011;4306;50.210;10.628;2022-08-01T06:19:12;4.13;;;2.55;;
8536;SDS011;4306;50.210;10.628;2022-08-01T06:21:39;3.25;;;2.00;;
8536;SDS011;4306;50.210;10.628;2022-08-01T06:24:06;3.28;;;2.30;;
8536;SDS011;4306;50.210;10.628;2022-08-01T06:26:34;4.55;;;2.38;;
8536;SDS011;4306;50.210;10.628;2022-08-01T06:29:03;3.30;;;1.90;;
8536;SDS011;4306;50.210;10.628;2022-08-01T06:31:30;2.95;;;2.10;;
8536;SDS011;4306;50.210;10.628;2022-08-01T06:33:57;3.38;;;1.92;;
8536;SDS011;4306;50.210;10.628;2022-08-01T06:36:24;2.80;;;2.00;;
8536;SDS011;4306;50.210;10.628;2022-08-01T06:38:51;4.93;;;2.03;;
8536;SDS011;4306;50.210;10.628;2022-08-01T06:41:18;4.60;;;2.08;;
8536;SDS011;4306;50.210;10.628;2022-08-01T06:43:45;4.28;;;1.90;;
8536;SDS011;4306;50.210;10.628;2022-08-01T06:46:13;5.20;;;2.35;;
8536;SDS011;4306;50.210;10.628;2022-08-01T06:48:40;3.70;;;2.22;;
8536;SDS011;4306;50.210;10.628;2022-08-01T06:51:07;3.38;;;2.42;;
8536;SDS011;4306;50.210;10.628;2022-08-01T06:53:35;3.28;;;1.67;;
8536;SDS011;4306;50.210;10.628;2022-08-01T06:56:03;2.95;;;2.13;;
8536;SDS011;4306;50.210;10.628;2022-08-01T06:58:30;4.30;;;2.65;;
8536;SDS011;4306;50.210;10.628;2022-08-01T07:00:59;3.72;;;2.20;;
8536;SDS011;4306;50.210;10.628;2022-08-01T07:03:31;3.25;;;2.13;;
8536;SDS011;4306;50.210;10.628;2022-08-01T07:05:58;3.83;;;2.60;;
8536;SDS011;4306;50.210;10.628;2022-08-01T07:08:25;3.45;;;2.45;;
8536;SDS011;4306;50.210;10.628;2022-08-01T07:10:52;3.35;;;2.17;;
8536;SDS011;4306;50.210;10.628;2022-08-01T07:13:19;3.92;;;2.60;;
8536;SDS011;4306;50.210;10.628;2022-08-01T07:15:50;4.68;;;2.38;;
8536;SDS011;4306;50.210;10.628;2022-08-01T07:18:17;4.38;;;2.67;;
8536;SDS011;4306;50.210;10.628;2022-08-01T07:20:46;5.43;;;3.03;;
8536;SDS011;4306;50.210;10.628;2022-08-01T07:23:13;3.53;;;2.70;;
8536;SDS011;4306;50.210;10.628;2022-08-01T07:25:40;4.05;;;2.90;;
8536;SDS011;4306;50.210;10.628;2022-08-01T07:28:07;4.50;;;2.83;;
8536;SDS011;4306;50.210;10.628;2022-08-01T07:30:34;3.72;;;2.72;;
8536;SDS011;4306;50.210;10.628;2022-08-01T07:33:02;4.10;;;2.80;;
8536;SDS011;4306;50.210;10.628;2022-08-01T07:35:29;3.67;;;2.72;;
8536;SDS011;4306;50.210;10.628;2022-08-01T07:37:57;3.88;;;2.75;;
8536;SDS011;4306;50.210;10.628;2022-08-01T07:40:24;3.22;;;2.70;;
8536;SDS011;4306;50.210;10.628;2022-08-01T07:42:51;4.10;;;3.20;;
8536;SDS011;4306;50.210;10.628;2022-08-01T07:45:18;6.65;;;4.07;;
8536;SDS011;4306;50.210;10.628;2022-08-01T07:47:46;4.40;;;2.80;;
8536;SDS011;4306;50.210;10.628;2022-08-01T07:50:14;6.00;;;3.83;;
8536;SDS011;4306;50.210;10.628;2022-08-01T07:52:42;4.28;;;3.03;;
8536;SDS011;4306;50.210;10.628;2022-08-01T07:55:11;5.38;;;3.58;;
8536;SDS011;4306;50.210;10.628;2022-08-01T07:57:38;7.75;;;5.45;;
8536;SDS011;4306;50.210;10.628;2022-08-01T08:00:06;5.35;;;4.15;;
8536;SDS011;4306;50.210;10.628;2022-08-01T08:02:34;5.22;;;3.38;;
8536;SDS011;4306;50.210;10.628;2022-08-01T08:05:01;6.43;;;2.97;;
8536;SDS011;4306;50.210;10.628;2022-08-01T08:07:29;4.13;;;3.28;;
8536;SDS011;4306;50.210;10.628;2022-08-01T08:09:56;4.07;;;3.33;;
8536;SDS011;4306;50.210;10.628;2022-08-01T08:12:24;4.35;;;3.45;;
8536;SDS011;4306;50.210;10.628;2022-08-01T08:14:51;4.35;;;3.20;;
8536;SDS011;4306;50.210;10.628;2022-08-01T08:17:18;5.72;;;3.00;;
8536;SDS011;4306;50.210;10.628;2022-08-01T08:19:45;4.05;;;3.17;;
8536;SDS011;4306;50.210;10.628;2022-08-01T08:22:12;4.30;;;3.30;;
8536;SDS011;4306;50.210;10.628;2022-08-01T08:24:39;4.35;;;2.75;;
8536;SDS011;4306;50.210;10.628;2022-08-01T08:27:06;5.78;;;3.10;;
8536;SDS011;4306;50.210;10.628;2022-08-01T08:29:35;3.28;;;2.78;;
8536;SDS011;4306;50.210;10.628;2022-08-01T08:32:02;3.95;;;2.42;;
8536;SDS011;4306;50.210;10.628;2022-08-01T08:34:30;6.13;;;3.63;;
8536;SDS011;4306;50.210;10.628;2022-08-01T08:36:57;5.43;;;2.70;;
8536;SDS011;4306;50.210;10.628;2022-08-01T08:39:25;3.00;;;2.40;;
8536;SDS011;4306;50.210;10.628;2022-08-01T08:41:54;3.88;;;2.33;;
8536;SDS011;4306;50.210;10.628;2022-08-01T08:44:22;3.13;;;2.20;;
8536;SDS011;4306;50.210;10.628;2022-08-01T08:46:51;2.95;;;2.05;;
8536;SDS011;4306;50.210;10.628;2022-08-01T08:49:21;3.45;;;2.08;;
8536;SDS011;4306;50.210;10.628;2022-08-01T08:51:50;2.72;;;1.98;;
8536;SDS011;4306;50.210;10.628;2022-08-01T08:54:20;2.75;;;2.17;;
8536;SDS011;4306;50.210;10.628;2022-08-01T08:56:49;3.08;;;2.22;;
8536;SDS011;4306;50.210;10.628;2022-08-01T08:59:17;3.80;;;2.00;;
8536;SDS011;4306;50.210;10.628;2022-08-01T09:01:44;2.42;;;1.90;;
8536;SDS011;4306;50.210;10.628;2022-08-01T09:04:14;3.17;;;2.17;;
8536;SDS011;4306;50.210;10.628;2022-08-01T09:06:42;2.65;;;2.13;;
8536;SDS011;4306;50.210;10.628;2022-08-01T09:09:09;2.40;;;1.80;;
8536;SDS011;4306;50.210;10.628;2022-08-01T09:11:37;3.33;;;1.90;;
8536;SDS011;4306;50.210;10.628;2022-08-01T09:14:05;6.55;;;3.90;;
8536;SDS011;4306;50.210;10.628;2022-08-01T09:16:34;9.60;;;5.60;;
8536;SDS011;4306;50.210;10.628;2022-08-01T09:19:06;3.88;;;2.60;;
8536;SDS011;4306;50.210;10.628;2022-08-01T09:21:36;3.13;;;2.40;;
8536;SDS011;4306;50.210;10.628;2022-08-01T09:24:04;3.08;;;2.10;;
8536;SDS011;4306;50.210;10.628;2022-08-01T09:26:39;3.38;;;2.50;;
8536;SDS011;4306;50.210;10.628;2022-08-01T09:29:07;2.58;;;2.03;;
8536;SDS011;4306;50.210;10.628;2022-08-01T09:31:45;5.35;;;2.50;;
8536;SDS011;4306;50.210;10.628;2022-08-01T09:34:13;3.70;;;2.15;;
8536;SDS011;4306;50.210;10.628;2022-08-01T09:36:45;3.03;;;2.13;;
8536;SDS011;4306;50.210;10.628;2022-08-01T09:39:17;3.85;;;2.47;;
8536;SDS011;4306;50.210;10.628;2022-08-01T09:41:45;3.72;;;2.10;;
8536;SDS011;4306;50.210;10.628;2022-08-01T09:44:12;4.10;;;2.10;;
8536;SDS011;4306;50.210;10.628;2022-08-01T09:46:49;3.20;;;2.40;;
8536;SDS011;4306;50.210;10.628;2022-08-01T09:49:26;3.25;;;2.35;;
8536;SDS011;4306;50.210;10.628;2022-08-01T09:51:55;3.40;;;2.40;;
8536;SDS011;4306;50.210;10.628;2022-08-01T09:54:28;2.50;;;2.00;;
8536;SDS011;4306;50.210;10.628;2022-08-01T09:57:06;4.28;;;2.33;;
8536;SDS011;4306;50.210;10.628;2022-08-01T09:59:35;2.97;;;2.13;;
8536;SDS011;4306;50.210;10.628;2022-08-01T10:02:03;2.92;;;2.35;;
8536;SDS011;4306;50.210;10.628;2022-08-01T10:04:30;3.03;;;2.20;;
8536;SDS011;4306;50.210;10.628;2022-08-01T10:07:04;3.83;;;2.22;;
8536;SDS011;4306;50.210;10.628;2022-08-01T10:09:33;4.95;;;2.60;;
8536;SDS011;4306;50.210;10.628;2022-08-01T10:12:02;3.85;;;2.22;;
8536;SDS011;4306;50.210;10.628;2022-08-01T10:14:30;3.70;;;2.60;;
8536;SDS011;4306;50.210;10.628;2022-08-01T10:16:58;4.13;;;2.30;;
8536;SDS011;4306;50.210;10.628;2022-08-01T10:19:27;3.10;;;2.35;;
8536;SDS011;4306;50.210;10.628;2022-08-01T10:21:55;3.25;;;2.40;;
8536;SDS011;4306;50.210;10.628;2022-08-01T10:24:25;2.90;;;2.30;;
8536;SDS011;4306;50.210;10.628;2022-08-01T10:26:55;3.63;;;2.78;;
8536;SDS011;4306;50.210;10.628;2022-08-01T10:29:28;3.83;;;2.97;;
8536;SDS011;4306;50.210;10.628;2022-08-01T10:31:58;3.05;;;2.10;;
8536;SDS011;4306;50.210;10.628;2022-08-01T10:34:26;3.03;;;2.17;;
8536;SDS011;4306;50.210;10.628;2022-08-01T10:36:55;4.32;;;2.58;;
8536;SDS011;4306;50.210;10.628;2022-08-01T10:39:24;3.33;;;2.47;;
8536;SDS011;4306;50.210;10.628;2022-08-01T10:41:53;4.78;;;3.38;;
8536;SDS011;4306;50.210;10.628;2022-08-01T10:44:21;5.20;;;3.45;;
8536;SDS011;4306;50.210;10.628;2022-08-01T10:46:50;7.28;;;4.95;;
8536;SDS011;4306;50.210;10.628;2022-08-01T10:49:22;4.00;;;2.92;;
8536;SDS011;4306;50.210;10.628;2022-08-01T10:51:53;2.90;;;2.30;;
8536;SDS011;4306;50.210;10.628;2022-08-01T10:54:25;3.15;;;2.30;;
8536;SDS011;4306;50.210;10.628;2022-08-01T10:56:52;3.20;;;2.35;;
8536;SDS011;4306;50.210;10.628;2022-08-01T10:59:21;2.90;;;2.38;;
8536;SDS011;4306;50.210;10.628;2022-08-01T11:01:55;2.72;;;2.42;;
8536;SDS011;4306;50.210;10.628;2022-08-01T11:04:32;3.17;;;2.25;;
8536;SDS011;4306;50.210;10.628;2022-08-01T11:07:04;3.03;;;1.88;;
8536;SDS011;4306;50.210;10.628;2022-08-01T11:09:39;2.35;;;2.00;;
8536;SDS011;4306;50.210;10.628;2022-08-01T11:12:09;3.67;;;2.10;;
8536;SDS011;4306;50.210;10.628;2022-08-01T11:17:37;3.13;;;2.38;;
8536;SDS011;4306;50.210;10.628;2022-08-01T11:20:09;2.35;;;1.95;;
8536;SDS011;4306;50.210;10.628;2022-08-01T11:31:38;3.80;;;2.38;;
8536;SDS011;4306;50.210;10.628;2022-08-01T11:34:05;3.10;;;2.25;;
8536;SDS011;4306;50.210;10.628;2022-08-01T11:36:32;3.03;;;2.63;;
8536;SDS011;4306;50.210;10.628;2022-08-01T11:39:12;4.35;;;2.00;;
8536;SDS011;4306;50.210;10.628;2022-08-01T11:41:42;2.47;;;1.80;;
8536;SDS011;4306;50.210;10.628;2022-08-01T11:44:11;2.67;;;1.83;;
8536;SDS011;4306;50.210;10.628;2022-08-01T11:49:45;2.97;;;1.75;;
8536;SDS011;4306;50.210;10.628;2022-08-01T11:52:16;2.35;;;1.92;;
8536;SDS011;4306;50.210;10.628;2022-08-01T11:54:45;2.65;;;1.90;;
8536;SDS011;4306;50.210;10.628;2022-08-01T11:57:15;3.10;;;1.92;;
8536;SDS011;4306;50.210;10.628;2022-08-01T11:59:44;4.25;;;2.00;;
8536;SDS011;4306;50.210;10.628;2022-08-01T12:02:14;2.90;;;2.25;;
8536;SDS011;4306;50.210;10.628;2022-08-01T12:04:50;2.60;;;1.80;;
8536;SDS011;4306;50.210;10.628;2022-08-01T12:07:19;2.65;;;2.05;;
8536;SDS011;4306;50.210;10.628;2022-08-01T12:09:46;3.15;;;1.92;;
8536;SDS011;4306;50.210;10.628;2022-08-01T12:12:18;2.80;;;2.20;;
8536;SDS011;4306;50.210;10.628;2022-08-01T12:14:45;3.67;;;2.00;;
8536;SDS011;4306;50.210;10.628;2022-08-01T12:17:20;2.60;;;1.90;;
8536;SDS011;4306;50.210;10.628;2022-08-01T12:19:54;3.78;;;1.80;;
8536;SDS011;4306;50.210;10.628;2022-08-01T12:22:21;2.40;;;1.88;;
8536;SDS011;4306;50.210;10.628;2022-08-01T12:24:49;3.20;;;1.90;;
8536;SDS011;4306;50.210;10.628;2022-08-01T12:27:24;2.95;;;1.90;;
8536;SDS011;4306;50.210;10.628;2022-08-01T12:29:53;2.80;;;2.03;;
8536;SDS011;4306;50.210;10.628;2022-08-01T12:32:21;2.88;;;2.15;;
8536;SDS011;4306;50.210;10.628;2022-08-01T12:34:50;2.78;;;2.03;;
8536;SDS011;4306;50.210;10.628;2022-08-01T12:37:17;2.50;;;1.70;;
8536;SDS011;4306;50.210;10.628;2022-08-01T12:39:45;3.78;;;2.30;;
8536;SDS011;4306;50.210;10.628;2022-08-01T12:42:12;2.60;;;2.00;;
8536;SDS011;4306;50.210;10.628;2022-08-01T12:44:41;2.53;;;2.00;;
8536;SDS011;4306;50.210;10.628;2022-08-01T12:47:10;2.30;;;2.00;;
8536;SDS011;4306;50.210;10.628;2022-08-01T12:49:41;3.03;;;2.08;;
8536;SDS011;4306;50.210;10.628;2022-08-01T12:52:09;2.88;;;2.10;;
8536;SDS011;4306;50.210;10.628;2022-08-01T12:57:42;2.55;;;1.80;;
8536;SDS011;4306;50.210;10.628;2022-08-01T13:00:16;2.35;;;1.92;;
8536;SDS011;4306;50.210;10.628;2022-08-01T13:02:44;2.28;;;1.83;;
8536;SDS011;4306;50.210;10.628;2022-08-01T13:05:13;3.22;;;2.13;;
8536;SDS011;4306;50.210;10.628;2022-08-01T13:07:47;3.53;;;1.88;;
8536;SDS011;4306;50.210;10.628;2022-08-01T13:10:23;2.70;;;2.10;;
8536;SDS011;4306;50.210;10.628;2022-08-01T13:12:52;2.88;;;2.17;;
8536;SDS011;4306;50.210;10.628;2022-08-01T13:15:26;2.72;;;2.00;;
8536;SDS011;4306;50.210;10.628;2022-08-01T13:17:57;2.15;;;1.75;;
8536;SDS011;4306;50.210;10.628;2022-08-01T13:20:25;3.33;;;2.17;;
8536;SDS011;4306;50.210;10.628;2022-08-01T13:22:54;2.15;;;1.83;;
8536;SDS011;4306;50.210;10.628;2022-08-01T13:25:33;2.42;;;1.90;;
8536;SDS011;4306;50.210;10.628;2022-08-01T13:28:13;2.72;;;2.05;;
8536;SDS011;4306;50.210;10.628;2022-08-01T13:30:51;2.67;;;2.00;;
8536;SDS011;4306;50.210;10.628;2022-08-01T13:33:23;3.28;;;1.83;;
8536;SDS011;4306;50.210;10.628;2022-08-01T13:35:51;2.33;;;1.65;;
8536;SDS011;4306;50.210;10.628;2022-08-01T13:38:19;3.90;;;2.25;;
8536;SDS011;4306;50.210;10.628;2022-08-01T13:41:06;2.95;;;2.10;;
8536;SDS011;4306;50.210;10.628;2022-08-01T13:43:34;2.50;;;1.98;;
8536;SDS011;4306;50.210;10.628;2022-08-01T13:46:02;3.58;;;1.98;;
8536;SDS011;4306;50.210;10.628;2022-08-01T13:48:30;2.40;;;1.98;;
8536;SDS011;4306;50.210;10.628;2022-08-01T13:50:59;2.75;;;1.98;;
8536;SDS011;4306;50.210;10.628;2022-08-01T13:53:26;2.88;;;2.17;;
8536;SDS011;4306;50.210;10.628;2022-08-01T13:55:53;3.10;;;2.08;;
8536;SDS011;4306;50.210;10.628;2022-08-01T13:58:20;2.67;;;2.08;;
8536;SDS011;4306;50.210;10.628;2022-08-01T14:00:48;2.55;;;2.00;;
8536;SDS011;4306;50.210;10.628;2022-08-01T14:03:19;2.58;;;2.00;;
8536;SDS011;4306;50.210;10.628;2022-08-01T14:05:48;2.60;;;1.98;;
8536;SDS011;4306;50.210;10.628;2022-08-01T14:08:16;2.45;;;1.90;;
8536;SDS011;4306;50.210;10.628;2022-08-01T14:10:44;3.42;;;1.98;;
8536;SDS011;4306;50.210;10.628;2022-08-01T14:13:11;3.10;;;2.10;;
8536;SDS011;4306;50.210;10.628;2022-08-01T14:15:39;2.95;;;2.20;;
8536;SDS011;4306;50.210;10.628;2022-08-01T14:18:08;4.15;;;2.42;;
8536;SDS011;4306;50.210;10.628;2022-08-01T14:20:37;3.03;;;2.50;;
8536;SDS011;4306;50.210;10.628;2022-08-01T14:23:04;4.03;;;2.20;;
8536;SDS011;4306;50.210;10.628;2022-08-01T14:25:31;3.35;;;2.30;;
8536;SDS011;4306;50.210;10.628;2022-08-01T14:27:59;2.80;;;2.20;;
8536;SDS011;4306;50.210;10.628;2022-08-01T14:30:26;3.28;;;2.60;;
8536;SDS011;4306;50.210;10.628;2022-08-01T14:32:53;4.25;;;2.30;;
8536;SDS011;4306;50.210;10.628;2022-08-01T14:35:20;3.10;;;2.30;;
8536;SDS011;4306;50.210;10.628;2022-08-01T14:37:49;4.10;;;2.60;;
8536;SDS011;4306;50.210;10.628;2022-08-01T14:40:16;3.35;;;2.55;;
8536;SDS011;4306;50.210;10.628;2022-08-01T14:42:43;2.88;;;2.25;;
8536;SDS011;4306;50.210;10.628;2022-08-01T14:45:10;3.53;;;2.67;;
8536;SDS011;4306;50.210;10.628;2022-08-01T14:47:38;4.43;;;2.63;;
8536;SDS011;4306;50.210;10.628;2022-08-01T14:50:07;3.13;;;2.42;;
8536;SDS011;4306;50.210;10.628;2022-08-01T14:52:38;2.75;;;2.30;;
8536;SDS011;4306;50.210;10.628;2022-08-01T14:55:08;3.60;;;2.67;;
8536;SDS011;4306;50.210;10.628;2022-08-01T14:57:37;4.50;;;2.47;;
8536;SDS011;4306;50.210;10.628;2022-08-01T15:00:05;3.80;;;3.08;;
8536;SDS011;4306;50.210;10.628;2022-08-01T15:02:35;3.55;;;2.38;;
8536;SDS011;4306;50.210;10.628;2022-08-01T15:05:02;4.03;;;2.20;;
8536;SDS011;4306;50.210;10.628;2022-08-01T15:07:29;4.90;;;2.40;;
8536;SDS011;4306;50.210;10.628;2022-08-01T15:09:57;3.38;;;2.38;;
8536;SDS011;4306;50.210;10.628;2022-08-01T15:12:25;3.45;;;2.70;;
8536;SDS011;4306;50.210;10.628;2022-08-01T15:14:52;3.90;;;2.72;;
8536;SDS011;4306;50.210;10.628;2022-08-01T15:17:20;3.65;;;2.58;;
8536;SDS011;4306;50.210;10.628;2022-08-01T15:19:51;4.28;;;2.42;;
8536;SDS011;4306;50.210;10.628;2022-08-01T15:22:19;3.03;;;2.53;;
8536;SDS011;4306;50.210;10.628;2022-08-01T15:24:47;5.25;;;2.78;;
8536;SDS011;4306;50.210;10.628;2022-08-01T15:27:15;4.10;;;2.70;;
8536;SDS011;4306;50.210;10.628;2022-08-01T15:29:43;4.35;;;2.55;;